createdAt,value
2018-02-05T00:00:20.440Z,1014.97
2018-02-05T00:01:20.407Z,1014.99
2018-02-05T00:02:20.374Z,1014.98
2018-02-05T00:03:20.340Z,1015.01
2018-02-05T00:04:20.308Z,1015.04
2018-02-05T00:05:20.276Z,1015.03
2018-02-05T00:06:20.242Z,1015.05
2018-02-05T00:07:20.210Z,1015.01
2018-02-05T00:08:20.176Z,1014.98
2018-02-05T00:09:20.144Z,1015
2018-02-05T00:10:20.110Z,1015
2018-02-05T00:11:20.077Z,1014.97
2018-02-05T00:12:20.045Z,1015.01
2018-02-05T00:13:20.011Z,1014.96
2018-02-05T00:14:19.976Z,1014.96
2018-02-05T00:15:19.944Z,1014.96
2018-02-05T00:16:20.154Z,1014.99
2018-02-05T00:17:19.877Z,1014.94
2018-02-05T00:18:19.843Z,1015.01
2018-02-05T00:19:19.811Z,1014.95
2018-02-05T00:20:19.776Z,1015
2018-02-05T00:21:19.743Z,1015.01
2018-02-05T00:22:19.710Z,1014.97
2018-02-05T00:23:19.677Z,1014.99
2018-02-05T00:24:19.644Z,1014.99
2018-02-05T00:25:19.610Z,1014.98
2018-02-05T00:26:19.576Z,1015
2018-02-05T00:27:19.545Z,1014.95
2018-02-05T00:28:19.509Z,1014.99
2018-02-05T00:29:19.475Z,1015
2018-02-05T00:30:19.447Z,1015.03
2018-02-05T00:31:19.408Z,1015.03
2018-02-05T00:32:19.376Z,1015.01
2018-02-05T00:33:19.341Z,1015.06
2018-02-05T00:34:19.308Z,1015.03
2018-02-05T00:35:19.274Z,1015.03
2018-02-05T00:36:19.240Z,1015.05
2018-02-05T00:37:19.206Z,1015.07
2018-02-05T00:38:19.174Z,1015.06
2018-02-05T00:39:19.139Z,1015.09
2018-02-05T00:40:19.105Z,1015.09
2018-02-05T00:41:19.072Z,1015.1
2018-02-05T00:42:19.038Z,1015.15
2018-02-05T00:43:19.004Z,1015.15
2018-02-05T00:44:18.970Z,1015.14
2018-02-05T00:45:18.938Z,1015.14
2018-02-05T00:46:18.904Z,1015.14
2018-02-05T00:47:18.870Z,1015.1
2018-02-05T00:48:18.836Z,1015.14
2018-02-05T00:49:18.801Z,1015.17
2018-02-05T00:50:18.768Z,1015.16
2018-02-05T00:51:18.733Z,1015.24
2018-02-05T00:52:18.700Z,1015.22
2018-02-05T00:53:18.667Z,1015.23
2018-02-05T00:54:18.632Z,1015.22
2018-02-05T00:55:18.599Z,1015.24
2018-02-05T00:56:18.565Z,1015.22
2018-02-05T00:57:18.531Z,1015.24
2018-02-05T00:58:18.498Z,1015.21
2018-02-05T00:59:18.464Z,1015.25
2018-02-05T01:00:18.433Z,1015.26
2018-02-05T01:01:18.397Z,1015.27
2018-02-05T01:02:18.364Z,1015.26
2018-02-05T01:03:18.328Z,1015.27
2018-02-05T01:04:18.294Z,1015.27
2018-02-05T01:05:18.260Z,1015.26
2018-02-05T01:06:18.226Z,1015.28
2018-02-05T01:07:18.238Z,1015.29
2018-02-05T01:08:18.159Z,1015.3
2018-02-05T01:09:18.125Z,1015.25
2018-02-05T01:10:18.092Z,1015.28
2018-02-05T01:11:18.061Z,1015.32
2018-02-05T01:12:18.023Z,1015.29
2018-02-05T01:13:17.989Z,1015.33
2018-02-05T01:14:17.954Z,1015.31
2018-02-05T01:15:17.922Z,1015.29
2018-02-05T01:16:17.887Z,1015.33
2018-02-05T01:17:17.852Z,1015.26
2018-02-05T01:18:17.819Z,1015.29
2018-02-05T01:19:17.785Z,1015.27
2018-02-05T01:20:17.751Z,1015.23
2018-02-05T01:21:17.718Z,1015.23
2018-02-05T01:22:17.684Z,1015.19
2018-02-05T01:23:17.648Z,1015.2
2018-02-05T01:24:17.614Z,1015.2
2018-02-05T01:25:17.582Z,1015.23
2018-02-05T01:26:17.547Z,1015.25
2018-02-05T01:27:17.512Z,1015.23
2018-02-05T01:28:17.479Z,1015.24
2018-02-05T01:29:17.446Z,1015.24
2018-02-05T01:30:17.412Z,1015.24
2018-02-05T01:31:17.377Z,1015.28
2018-02-05T01:32:17.342Z,1015.29
2018-02-05T01:33:17.308Z,1015.24
2018-02-05T01:34:17.274Z,1015.25
2018-02-05T01:35:17.240Z,1015.28
2018-02-05T01:36:17.305Z,1015.27
2018-02-05T01:37:17.173Z,1015.23
2018-02-05T01:38:17.137Z,1015.25
2018-02-05T01:39:17.103Z,1015.27
2018-02-05T01:40:17.070Z,1015.27
2018-02-05T01:41:17.035Z,1015.29
2018-02-05T01:42:17.003Z,1015.22
2018-02-05T01:43:16.969Z,1015.22
2018-02-05T01:44:16.934Z,1015.24
2018-02-05T01:45:16.899Z,1015.23
2018-02-05T01:46:16.865Z,1015.21
2018-02-05T01:47:16.831Z,1015.22
2018-02-05T01:48:16.797Z,1015.19
2018-02-05T01:49:16.766Z,1015.14
2018-02-05T01:50:16.730Z,1015.18
2018-02-05T01:51:16.695Z,1015.15
2018-02-05T01:52:16.661Z,1015.17
2018-02-05T01:53:16.626Z,1015.12
2018-02-05T01:54:16.592Z,1015.12
2018-02-05T01:55:16.559Z,1015.12
2018-02-05T01:56:16.524Z,1015.12
2018-02-05T01:57:16.490Z,1015.13
2018-02-05T01:58:16.460Z,1015.14
2018-02-05T01:59:16.422Z,1015.14
2018-02-05T02:00:16.387Z,1015.15
2018-02-05T02:01:16.353Z,1015.11
2018-02-05T02:02:16.320Z,1015.09
2018-02-05T02:03:16.285Z,1015.15
2018-02-05T02:04:16.252Z,1015.1
2018-02-05T02:05:16.217Z,1015.12
2018-02-05T02:06:16.182Z,1015.14
2018-02-05T02:07:16.147Z,1015.13
2018-02-05T02:08:16.114Z,1015.13
2018-02-05T02:09:16.080Z,1015.11
2018-02-05T02:10:16.046Z,1015.13
2018-02-05T02:11:16.011Z,1015.15
2018-02-05T02:12:15.978Z,1015.14
2018-02-05T02:13:15.944Z,1015.09
2018-02-05T02:14:15.908Z,1015.16
2018-02-05T02:15:15.875Z,1015.15
2018-02-05T02:16:15.841Z,1015.17
2018-02-05T02:17:15.806Z,1015.18
2018-02-05T02:18:15.772Z,1015.15
2018-02-05T02:19:15.738Z,1015.12
2018-02-05T02:20:15.704Z,1015.08
2018-02-05T02:21:15.671Z,1015.14
2018-02-05T02:22:15.635Z,1015.11
2018-02-05T02:23:15.600Z,1015.09
2018-02-05T02:24:15.566Z,1015.11
2018-02-05T02:25:15.532Z,1015.06
2018-02-05T02:26:15.497Z,1015.06
2018-02-05T02:27:15.464Z,1015.11
2018-02-05T02:28:15.437Z,1015.12
2018-02-05T02:29:15.394Z,1015.13
2018-02-05T02:30:15.362Z,1015.07
2018-02-05T02:31:15.327Z,1015.12
2018-02-05T02:32:15.293Z,1015.12
2018-02-05T02:33:15.257Z,1015.1
2018-02-05T02:34:15.222Z,1015.15
2018-02-05T02:35:15.190Z,1015.15
2018-02-05T02:36:15.157Z,1015.14
2018-02-05T02:37:15.121Z,1015.14
2018-02-05T02:38:15.086Z,1015.16
2018-02-05T02:39:15.052Z,1015.18
2018-02-05T02:40:15.016Z,1015.19
2018-02-05T02:41:14.982Z,1015.19
2018-02-05T02:42:14.948Z,1015.23
2018-02-05T02:43:14.915Z,1015.21
2018-02-05T02:44:14.880Z,1015.22
2018-02-05T02:45:14.845Z,1015.19
2018-02-05T02:46:14.815Z,1015.19
2018-02-05T02:47:14.777Z,1015.27
2018-02-05T02:48:14.743Z,1015.28
2018-02-05T02:49:14.708Z,1015.26
2018-02-05T02:50:14.675Z,1015.28
2018-02-05T02:51:14.638Z,1015.33
2018-02-05T02:52:14.605Z,1015.3
2018-02-05T02:53:14.570Z,1015.33
2018-02-05T02:54:14.536Z,1015.36
2018-02-05T02:55:14.502Z,1015.32
2018-02-05T02:56:14.467Z,1015.34
2018-02-05T02:57:14.432Z,1015.33
2018-02-05T02:58:14.398Z,1015.35
2018-02-05T02:59:14.363Z,1015.37
2018-02-05T03:00:14.329Z,1015.34
2018-02-05T03:01:14.294Z,1015.35
2018-02-05T03:02:14.262Z,1015.38
2018-02-05T03:03:14.224Z,1015.38
2018-02-05T03:04:14.193Z,1015.43
2018-02-05T03:05:14.157Z,1015.42
2018-02-05T03:06:14.122Z,1015.4
2018-02-05T03:07:14.086Z,1015.36
2018-02-05T03:08:14.052Z,1015.4
2018-02-05T03:09:14.017Z,1015.4
2018-02-05T03:10:13.990Z,1015.42
2018-02-05T03:11:13.949Z,1015.44
2018-02-05T03:12:13.915Z,1015.38
2018-02-05T03:13:13.885Z,1015.4
2018-02-05T03:14:13.845Z,1015.4
2018-02-05T03:15:13.811Z,1015.43
2018-02-05T03:16:13.776Z,1015.43
2018-02-05T03:17:13.743Z,1015.41
2018-02-05T03:18:13.708Z,1015.42
2018-02-05T03:19:13.674Z,1015.4
2018-02-05T03:20:13.639Z,1015.44
2018-02-05T03:21:13.604Z,1015.41
2018-02-05T03:22:13.569Z,1015.4
2018-02-05T03:23:13.536Z,1015.4
2018-02-05T03:24:13.500Z,1015.38
2018-02-05T03:25:13.466Z,1015.38
2018-02-05T03:26:13.431Z,1015.43
2018-02-05T03:27:13.397Z,1015.44
2018-02-05T03:28:13.362Z,1015.48
2018-02-05T03:29:13.328Z,1015.44
2018-02-05T03:30:13.294Z,1015.44
2018-02-05T03:31:13.266Z,1015.43
2018-02-05T03:32:13.224Z,1015.46
2018-02-05T03:33:13.191Z,1015.46
2018-02-05T03:34:13.160Z,1015.47
2018-02-05T03:35:13.124Z,1015.42
2018-02-05T03:36:13.086Z,1015.48
2018-02-05T03:37:13.052Z,1015.48
2018-02-05T03:38:13.016Z,1015.43
2018-02-05T03:39:12.982Z,1015.47
2018-02-05T03:40:12.947Z,1015.48
2018-02-05T03:41:12.913Z,1015.48
2018-02-05T03:42:12.878Z,1015.51
2018-02-05T03:43:12.844Z,1015.52
2018-02-05T03:44:12.810Z,1015.5
2018-02-05T03:45:12.775Z,1015.49
2018-02-05T03:46:12.739Z,1015.47
2018-02-05T03:47:12.705Z,1015.48
2018-02-05T03:48:12.671Z,1015.47
2018-02-05T03:49:12.636Z,1015.53
2018-02-05T03:50:12.602Z,1015.59
2018-02-05T03:51:12.567Z,1015.62
2018-02-05T03:52:12.533Z,1015.64
2018-02-05T03:53:12.496Z,1015.67
2018-02-05T03:54:12.464Z,1015.7
2018-02-05T03:55:12.428Z,1015.71
2018-02-05T03:56:12.394Z,1015.71
2018-02-05T03:57:12.364Z,1015.71
2018-02-05T03:58:12.324Z,1015.7
2018-02-05T03:59:12.288Z,1015.71
2018-02-05T04:00:12.253Z,1015.74
2018-02-05T04:01:12.218Z,1015.75
2018-02-05T04:02:12.185Z,1015.73
2018-02-05T04:03:12.151Z,1015.75
2018-02-05T04:04:12.118Z,1015.73
2018-02-05T04:05:12.084Z,1015.75
2018-02-05T04:06:12.052Z,1015.73
2018-02-05T04:07:12.012Z,1015.73
2018-02-05T04:08:11.977Z,1015.76
2018-02-05T04:09:11.941Z,1015.77
2018-02-05T04:10:11.907Z,1015.78
2018-02-05T04:11:11.871Z,1015.78
2018-02-05T04:12:11.838Z,1015.81
2018-02-05T04:13:11.803Z,1015.84
2018-02-05T04:14:11.768Z,1015.85
2018-02-05T04:15:11.733Z,1015.78
2018-02-05T04:16:11.697Z,1015.78
2018-02-05T04:17:11.663Z,1015.83
2018-02-05T04:18:11.629Z,1015.82
2018-02-05T04:19:11.594Z,1015.82
2018-02-05T04:20:11.565Z,1015.83
2018-02-05T04:21:11.524Z,1015.85
2018-02-05T04:22:11.488Z,1015.86
2018-02-05T04:23:11.454Z,1015.85
2018-02-05T04:24:11.419Z,1015.86
2018-02-05T04:25:11.385Z,1015.86
2018-02-05T04:26:11.349Z,1015.88
2018-02-05T04:27:11.314Z,1015.89
2018-02-05T04:28:11.279Z,1015.92
2018-02-05T04:29:11.245Z,1015.91
2018-02-05T04:30:11.210Z,1015.93
2018-02-05T04:31:11.176Z,1015.94
2018-02-05T04:32:11.141Z,1015.93
2018-02-05T04:33:11.105Z,1015.98
2018-02-05T04:34:11.071Z,1015.94
2018-02-05T04:35:11.037Z,1015.96
2018-02-05T04:36:11.001Z,1015.98
2018-02-05T04:37:10.965Z,1016
2018-02-05T04:38:10.937Z,1015.98
2018-02-05T04:39:10.897Z,1016
2018-02-05T04:40:10.862Z,1015.99
2018-02-05T04:41:10.826Z,1016.03
2018-02-05T04:42:10.792Z,1016.04
2018-02-05T04:43:10.758Z,1016.03
2018-02-05T04:44:10.721Z,1016.03
2018-02-05T04:45:10.686Z,1016.01
2018-02-05T04:46:10.653Z,1016.03
2018-02-05T04:47:10.618Z,1015.99
2018-02-05T04:48:10.582Z,1015.96
2018-02-05T04:49:10.548Z,1016
2018-02-05T04:50:10.513Z,1015.99
2018-02-05T04:51:10.478Z,1016.04
2018-02-05T04:52:10.448Z,1016.07
2018-02-05T04:53:10.412Z,1016.05
2018-02-05T04:54:10.374Z,1016.05
2018-02-05T04:55:10.338Z,1016.05
2018-02-05T04:56:10.304Z,1016.05
2018-02-05T04:57:10.270Z,1016.08
2018-02-05T04:58:10.234Z,1016.05
2018-02-05T04:59:10.199Z,1016.06
2018-02-05T05:00:10.165Z,1016.1
2018-02-05T05:01:10.131Z,1016.13
2018-02-05T05:02:10.094Z,1016.13
2018-02-05T05:03:10.060Z,1016.12
2018-02-05T05:04:10.026Z,1016.11
2018-02-05T05:05:09.992Z,1016.16
2018-02-05T05:06:09.955Z,1016.11
2018-02-05T05:07:09.920Z,1016.12
2018-02-05T05:08:09.887Z,1016.08
2018-02-05T05:09:09.851Z,1016.12
2018-02-05T05:10:09.816Z,1016.11
2018-02-05T05:11:09.780Z,1016.09
2018-02-05T05:12:09.747Z,1016.07
2018-02-05T05:13:09.711Z,1016.08
2018-02-05T05:14:09.676Z,1016.09
2018-02-05T05:15:09.641Z,1016.05
2018-02-05T05:16:09.607Z,1016.04
2018-02-05T05:17:09.573Z,1016.07
2018-02-05T05:18:09.540Z,1016.07
2018-02-05T05:19:09.502Z,1016.1
2018-02-05T05:20:09.716Z,1016.11
2018-02-05T05:21:09.432Z,1016.15
2018-02-05T05:22:09.399Z,1016.13
2018-02-05T05:23:09.362Z,1016.17
2018-02-05T05:24:09.327Z,1016.13
2018-02-05T05:25:09.292Z,1016.15
2018-02-05T05:26:09.257Z,1016.18
2018-02-05T05:27:09.223Z,1016.18
2018-02-05T05:28:09.187Z,1016.11
2018-02-05T05:29:09.151Z,1016.23
2018-02-05T05:30:09.118Z,1016.22
2018-02-05T05:31:09.083Z,1016.23
2018-02-05T05:32:09.048Z,1016.26
2018-02-05T05:33:09.013Z,1016.23
2018-02-05T05:34:08.977Z,1016.17
2018-02-05T05:35:08.942Z,1016.2
2018-02-05T05:36:08.908Z,1016.2
2018-02-05T05:37:08.872Z,1016.19
2018-02-05T05:38:08.839Z,1016.23
2018-02-05T05:39:08.802Z,1016.22
2018-02-05T05:40:08.768Z,1016.23
2018-02-05T05:41:08.732Z,1016.22
2018-02-05T05:42:08.697Z,1016.23
2018-02-05T05:43:08.662Z,1016.2
2018-02-05T05:44:08.628Z,1016.19
2018-02-05T05:45:08.592Z,1016.22
2018-02-05T05:46:08.557Z,1016.21
2018-02-05T05:47:08.522Z,1016.22
2018-02-05T05:48:08.488Z,1016.2
2018-02-05T05:49:08.452Z,1016.22
2018-02-05T05:50:08.416Z,1016.24
2018-02-05T05:51:08.383Z,1016.2
2018-02-05T05:52:08.348Z,1016.19
2018-02-05T05:53:08.312Z,1016.23
2018-02-05T05:54:08.276Z,1016.24
2018-02-05T05:55:08.259Z,1016.21
2018-02-05T05:56:08.207Z,1016.23
2018-02-05T05:57:08.171Z,1016.25
2018-02-05T05:58:08.138Z,1016.2
2018-02-05T05:59:08.102Z,1016.22
2018-02-05T06:00:08.068Z,1016.25
2018-02-05T06:01:08.034Z,1016.23
2018-02-05T06:02:07.996Z,1016.23
2018-02-05T06:03:07.961Z,1016.26
2018-02-05T06:04:07.930Z,1016.26
2018-02-05T06:05:07.894Z,1016.31
2018-02-05T06:06:07.856Z,1016.27
2018-02-05T06:07:07.822Z,1016.33
2018-02-05T06:08:07.786Z,1016.29
2018-02-05T06:09:07.752Z,1016.29
2018-02-05T06:10:07.716Z,1016.33
2018-02-05T06:11:07.682Z,1016.34
2018-02-05T06:12:07.647Z,1016.32
2018-02-05T06:13:07.650Z,1016.3
2018-02-05T06:14:07.576Z,1016.35
2018-02-05T06:15:07.541Z,1016.35
2018-02-05T06:16:07.506Z,1016.36
2018-02-05T06:17:07.472Z,1016.34
2018-02-05T06:18:07.436Z,1016.36
2018-02-05T06:19:07.400Z,1016.35
2018-02-05T06:20:07.365Z,1016.36
2018-02-05T06:21:07.330Z,1016.35
2018-02-05T06:22:07.296Z,1016.43
2018-02-05T06:23:07.259Z,1016.42
2018-02-05T06:24:07.225Z,1016.4
2018-02-05T06:25:07.191Z,1016.42
2018-02-05T06:26:07.155Z,1016.44
2018-02-05T06:27:07.120Z,1016.45
2018-02-05T06:28:07.087Z,1016.47
2018-02-05T06:29:07.052Z,1016.45
2018-02-05T06:30:07.017Z,1016.43
2018-02-05T06:31:06.981Z,1016.51
2018-02-05T06:32:06.946Z,1016.45
2018-02-05T06:33:06.911Z,1016.43
2018-02-05T06:34:06.875Z,1016.5
2018-02-05T06:35:06.840Z,1016.46
2018-02-05T06:36:06.805Z,1016.46
2018-02-05T06:37:06.770Z,1016.43
2018-02-05T06:38:06.734Z,1016.47
2018-02-05T06:39:06.700Z,1016.4
2018-02-05T06:40:06.664Z,1016.43
2018-02-05T06:41:06.628Z,1016.4
2018-02-05T06:42:06.593Z,1016.43
2018-02-05T06:43:06.561Z,1016.46
2018-02-05T06:44:06.524Z,1016.45
2018-02-05T06:45:06.489Z,1016.44
2018-02-05T06:46:06.454Z,1016.45
2018-02-05T06:47:06.418Z,1016.47
2018-02-05T06:48:06.383Z,1016.48
2018-02-05T06:49:06.349Z,1016.44
2018-02-05T06:50:06.314Z,1016.46
2018-02-05T06:51:06.279Z,1016.49
2018-02-05T06:52:06.242Z,1016.5
2018-02-05T06:53:06.208Z,1016.51
2018-02-05T06:54:06.172Z,1016.48
2018-02-05T06:55:06.139Z,1016.53
2018-02-05T06:56:06.101Z,1016.54
2018-02-05T06:57:06.067Z,1016.54
2018-02-05T06:58:06.031Z,1016.53
2018-02-05T06:59:05.996Z,1016.55
2018-02-05T07:00:05.973Z,1016.53
2018-02-05T07:01:05.927Z,1016.54
2018-02-05T07:02:05.892Z,1016.56
2018-02-05T07:03:05.856Z,1016.59
2018-02-05T07:04:05.820Z,1016.58
2018-02-05T07:05:05.784Z,1016.59
2018-02-05T07:06:05.750Z,1016.66
2018-02-05T07:07:05.714Z,1016.61
2018-02-05T07:08:05.679Z,1016.61
2018-02-05T07:09:05.645Z,1016.62
2018-02-05T07:10:05.608Z,1016.61
2018-02-05T07:11:05.584Z,1016.66
2018-02-05T07:12:05.539Z,1016.67
2018-02-05T07:13:05.503Z,1016.7
2018-02-05T07:14:05.472Z,1016.64
2018-02-05T07:15:05.459Z,1016.63
2018-02-05T07:16:05.398Z,1016.69
2018-02-05T07:17:05.362Z,1016.69
2018-02-05T07:18:05.326Z,1016.74
2018-02-05T07:19:05.292Z,1016.74
2018-02-05T07:20:05.295Z,1016.72
2018-02-05T07:21:05.224Z,1016.68
2018-02-05T07:22:05.187Z,1016.72
2018-02-05T07:23:05.152Z,1016.66
2018-02-05T07:24:05.118Z,1016.64
2018-02-05T07:25:05.082Z,1016.67
2018-02-05T07:26:05.056Z,1016.72
2018-02-05T07:27:05.012Z,1016.7
2018-02-05T07:28:05.066Z,1016.72
2018-02-05T07:29:04.942Z,1016.73
2018-02-05T07:30:04.906Z,1016.71
2018-02-05T07:31:04.872Z,1016.71
2018-02-05T07:32:04.837Z,1016.73
2018-02-05T07:33:04.854Z,1016.71
2018-02-05T07:34:04.766Z,1016.72
2018-02-05T07:35:04.734Z,1016.73
2018-02-05T07:36:04.695Z,1016.78
2018-02-05T07:37:04.664Z,1016.79
2018-02-05T07:38:04.625Z,1016.78
2018-02-05T07:39:04.593Z,1016.73
2018-02-05T07:40:04.556Z,1016.73
2018-02-05T07:41:04.521Z,1016.76
2018-02-05T07:42:04.488Z,1016.74
2018-02-05T07:43:04.454Z,1016.76
2018-02-05T07:44:04.415Z,1016.77
2018-02-05T07:45:04.381Z,1016.73
2018-02-05T07:46:04.346Z,1016.74
2018-02-05T07:47:04.310Z,1016.73
2018-02-05T07:48:04.276Z,1016.77
2018-02-05T07:49:04.242Z,1016.78
2018-02-05T07:50:04.206Z,1016.79
2018-02-05T07:51:04.172Z,1016.79
2018-02-05T07:52:04.137Z,1016.78
2018-02-05T07:53:04.102Z,1016.78
2018-02-05T07:54:04.067Z,1016.8
2018-02-05T07:55:04.039Z,1016.79
2018-02-05T07:56:04.014Z,1016.8
2018-02-05T07:57:03.963Z,1016.85
2018-02-05T07:58:03.929Z,1016.85
2018-02-05T07:59:03.894Z,1016.86
2018-02-05T08:00:03.859Z,1016.87
2018-02-05T08:01:03.830Z,1016.89
2018-02-05T08:02:03.791Z,1016.89
2018-02-05T08:03:03.756Z,1016.87
2018-02-05T08:04:03.724Z,1016.92
2018-02-05T08:05:03.691Z,1016.9
2018-02-05T08:06:03.652Z,1016.89
2018-02-05T08:07:03.616Z,1016.87
2018-02-05T08:08:03.619Z,1016.91
2018-02-05T08:09:03.548Z,1016.87
2018-02-05T08:10:03.514Z,1016.93
2018-02-05T08:11:03.479Z,1016.93
2018-02-05T08:12:03.444Z,1016.91
2018-02-05T08:13:03.410Z,1016.9
2018-02-05T08:14:03.375Z,1016.92
2018-02-05T08:15:03.592Z,1016.95
2018-02-05T08:16:03.368Z,1016.93
2018-02-05T08:17:03.271Z,1016.93
2018-02-05T08:18:03.238Z,1016.92
2018-02-05T08:19:03.281Z,1016.91
2018-02-05T08:20:03.241Z,1016.91
2018-02-05T08:21:03.134Z,1016.92
2018-02-05T08:22:03.100Z,1016.88
2018-02-05T08:23:03.064Z,1016.92
2018-02-05T08:24:03.554Z,1016.95
2018-02-05T08:25:03.471Z,1016.89
2018-02-05T08:26:03.194Z,1016.9
2018-02-05T08:27:02.927Z,1016.91
2018-02-05T08:28:02.893Z,1016.91
2018-02-05T08:29:02.859Z,1016.87
2018-02-05T08:30:02.826Z,1016.85
2018-02-05T08:31:02.789Z,1016.85
2018-02-05T08:32:02.799Z,1016.86
2018-02-05T08:33:02.722Z,1016.9
2018-02-05T08:34:02.686Z,1016.87
2018-02-05T08:35:02.654Z,1016.83
2018-02-05T08:36:02.618Z,1016.8
2018-02-05T08:37:02.584Z,1016.78
2018-02-05T08:38:02.550Z,1016.83
2018-02-05T08:39:02.518Z,1016.85
2018-02-05T08:40:02.482Z,1016.85
2018-02-05T08:41:02.463Z,1016.84
2018-02-05T08:42:02.414Z,1016.82
2018-02-05T08:43:02.381Z,1016.83
2018-02-05T08:44:02.361Z,1016.86
2018-02-05T08:45:02.312Z,1016.87
2018-02-05T08:46:02.278Z,1016.84
2018-02-05T08:47:02.245Z,1016.85
2018-02-05T08:48:02.211Z,1016.86
2018-02-05T08:49:02.176Z,1016.84
2018-02-05T08:50:02.143Z,1016.84
2018-02-05T08:51:02.109Z,1016.87
2018-02-05T08:52:02.076Z,1016.79
2018-02-05T08:53:02.042Z,1016.81
2018-02-05T08:54:02.008Z,1016.79
2018-02-05T08:55:01.974Z,1016.79
2018-02-05T08:56:01.939Z,1016.77
2018-02-05T08:57:01.909Z,1016.84
2018-02-05T08:58:01.872Z,1016.82
2018-02-05T08:59:01.839Z,1016.77
2018-02-05T09:00:01.806Z,1016.77
2018-02-05T09:01:01.772Z,1016.8
2018-02-05T09:02:01.738Z,1016.79
2018-02-05T09:03:01.706Z,1016.78
2018-02-05T09:04:01.671Z,1016.75
2018-02-05T09:05:01.638Z,1016.76
2018-02-05T09:06:01.753Z,1016.77
2018-02-05T09:07:01.570Z,1016.77
2018-02-05T09:08:01.537Z,1016.78
2018-02-05T09:09:01.504Z,1016.73
2018-02-05T09:10:01.571Z,1016.74
2018-02-05T09:11:01.437Z,1016.74
2018-02-05T09:12:01.410Z,1016.77
2018-02-05T09:13:01.370Z,1016.71
2018-02-05T09:14:01.337Z,1016.73
2018-02-05T09:15:01.304Z,1016.71
2018-02-05T09:16:01.272Z,1016.74
2018-02-05T09:17:01.238Z,1016.71
2018-02-05T09:18:01.204Z,1016.75
2018-02-05T09:19:01.170Z,1016.73
2018-02-05T09:20:01.187Z,1016.73
2018-02-05T09:21:01.104Z,1016.77
2018-02-05T09:22:01.070Z,1016.77
2018-02-05T09:23:01.037Z,1016.75
2018-02-05T09:24:01.004Z,1016.73
2018-02-05T09:25:01.097Z,1016.74
2018-02-05T09:26:01.003Z,1016.76
2018-02-05T09:27:00.931Z,1016.68
2018-02-05T09:28:00.961Z,1016.7
2018-02-05T09:29:00.924Z,1016.68
2018-02-05T09:30:00.884Z,1016.71
2018-02-05T09:31:00.773Z,1016.69
2018-02-05T09:32:00.861Z,1016.66
2018-02-05T09:33:00.709Z,1016.7
2018-02-05T09:34:00.674Z,1016.68
2018-02-05T09:35:00.640Z,1016.68
2018-02-05T09:36:00.607Z,1016.64
2018-02-05T09:37:00.575Z,1016.65
2018-02-05T09:38:00.541Z,1016.6
2018-02-05T09:39:00.509Z,1016.65
2018-02-05T09:40:00.477Z,1016.59
2018-02-05T09:41:00.443Z,1016.55
2018-02-05T09:42:00.411Z,1016.52
2018-02-05T09:43:00.378Z,1016.56
2018-02-05T09:44:00.344Z,1016.53
2018-02-05T09:45:00.311Z,1016.53
2018-02-05T09:46:00.280Z,1016.53
2018-02-05T09:47:00.262Z,1016.45
2018-02-05T09:48:00.214Z,1016.49
2018-02-05T09:49:00.181Z,1016.47
2018-02-05T09:50:00.150Z,1016.51
2018-02-05T09:51:00.117Z,1016.49
2018-02-05T09:52:00.084Z,1016.45
2018-02-05T09:53:00.057Z,1016.48
2018-02-05T09:54:00.022Z,1016.47
2018-02-05T09:54:59.985Z,1016.44
2018-02-05T09:55:59.953Z,1016.37
2018-02-05T09:56:59.923Z,1016.49
2018-02-05T09:57:59.944Z,1016.51
2018-02-05T09:58:59.891Z,1016.42
2018-02-05T10:00:00.057Z,1016.41
2018-02-05T10:00:59.926Z,1016.43
2018-02-05T10:01:59.762Z,1016.44
2018-02-05T10:02:59.739Z,1016.48
2018-02-05T10:03:59.797Z,1016.44
2018-02-05T10:04:59.661Z,1016.44
2018-02-05T10:05:59.762Z,1016.35
2018-02-05T10:06:59.597Z,1016.48
2018-02-05T10:07:59.566Z,1016.41
2018-02-05T10:08:59.532Z,1016.45
2018-02-05T10:09:59.499Z,1016.37
2018-02-05T10:10:59.469Z,1016.46
2018-02-05T10:11:59.445Z,1016.48
2018-02-05T10:12:59.404Z,1016.46
2018-02-05T10:13:59.372Z,1016.45
2018-02-05T10:14:59.339Z,1016.42
2018-02-05T10:15:59.310Z,1016.48
2018-02-05T10:16:59.276Z,1016.5
2018-02-05T10:17:59.244Z,1016.41
2018-02-05T10:18:59.213Z,1016.39
2018-02-05T10:19:59.186Z,1016.41
2018-02-05T10:20:59.151Z,1016.38
2018-02-05T10:21:59.120Z,1016.37
2018-02-05T10:22:59.087Z,1016.25
2018-02-05T10:23:59.055Z,1016.34
2018-02-05T10:24:59.024Z,1016.31
2018-02-05T10:25:58.993Z,1016.33
2018-02-05T10:26:58.961Z,1016.31
2018-02-05T10:27:58.929Z,1016.28
2018-02-05T10:28:58.899Z,1016.28
2018-02-05T10:29:58.868Z,1016.27
2018-02-05T10:30:58.835Z,1016.25
2018-02-05T10:31:58.849Z,1016.28
2018-02-05T10:32:58.772Z,1016.23
2018-02-05T10:33:58.742Z,1016.24
2018-02-05T10:34:58.708Z,1016.19
2018-02-05T10:35:58.679Z,1016.15
2018-02-05T10:36:58.646Z,1016.14
2018-02-05T10:37:58.615Z,1016.18
2018-02-05T10:38:58.583Z,1016.1
2018-02-05T10:39:58.553Z,1016.08
2018-02-05T10:40:58.522Z,1016.15
2018-02-05T10:41:58.490Z,1016.08
2018-02-05T10:42:58.463Z,1016.07
2018-02-05T10:43:58.430Z,1016.05
2018-02-05T10:44:58.397Z,1016
2018-02-05T10:45:58.366Z,1016.02
2018-02-05T10:46:58.334Z,1016.02
2018-02-05T10:47:58.339Z,1016.03
2018-02-05T10:48:58.272Z,1016.06
2018-02-05T10:49:58.239Z,1016.05
2018-02-05T10:50:58.301Z,1016.04
2018-02-05T10:51:58.176Z,1016.05
2018-02-05T10:52:58.148Z,1015.94
2018-02-05T10:53:58.114Z,1016.05
2018-02-05T10:54:58.083Z,1016.06
2018-02-05T10:55:58.052Z,1015.99
2018-02-05T10:56:58.022Z,1015.91
2018-02-05T10:57:57.989Z,1016.03
2018-02-05T10:58:57.959Z,1016.03
2018-02-05T10:59:57.928Z,1016.06
2018-02-05T11:00:57.896Z,1016.01
2018-02-05T11:01:58.165Z,1015.97
2018-02-05T11:02:57.834Z,1015.9
2018-02-05T11:03:57.806Z,1015.97
2018-02-05T11:04:57.772Z,1015.88
2018-02-05T11:05:57.742Z,1015.92
2018-02-05T11:06:57.713Z,1015.92
2018-02-05T11:07:57.680Z,1015.89
2018-02-05T11:08:57.650Z,1015.94
2018-02-05T11:09:57.620Z,1015.91
2018-02-05T11:10:57.590Z,1015.9
2018-02-05T11:11:57.558Z,1015.86
2018-02-05T11:12:57.528Z,1015.87
2018-02-05T11:13:57.501Z,1015.91
2018-02-05T11:14:57.466Z,1015.87
2018-02-05T11:15:57.438Z,1015.86
2018-02-05T11:16:57.407Z,1015.83
2018-02-05T11:17:57.377Z,1015.79
2018-02-05T11:18:57.346Z,1015.81
2018-02-05T11:19:57.315Z,1015.8
2018-02-05T11:20:57.286Z,1015.81
2018-02-05T11:21:57.253Z,1015.81
2018-02-05T11:22:57.224Z,1015.83
2018-02-05T11:23:57.194Z,1015.83
2018-02-05T11:24:57.164Z,1015.8
2018-02-05T11:25:57.133Z,1015.8
2018-02-05T11:26:57.102Z,1015.84
2018-02-05T11:27:57.073Z,1015.77
2018-02-05T11:28:57.043Z,1015.81
2018-02-05T11:29:57.011Z,1015.73
2018-02-05T11:30:56.984Z,1015.8
2018-02-05T11:31:56.952Z,1015.83
2018-02-05T11:32:56.920Z,1015.8
2018-02-05T11:33:56.891Z,1015.86
2018-02-05T11:34:56.861Z,1015.81
2018-02-05T11:35:56.830Z,1015.8
2018-02-05T11:36:56.800Z,1015.78
2018-02-05T11:37:56.769Z,1015.81
2018-02-05T11:38:56.740Z,1015.79
2018-02-05T11:39:56.710Z,1015.76
2018-02-05T11:40:56.680Z,1015.74
2018-02-05T11:41:56.650Z,1015.69
2018-02-05T11:42:56.621Z,1015.69
2018-02-05T11:43:56.590Z,1015.71
2018-02-05T11:44:56.560Z,1015.73
2018-02-05T11:45:56.530Z,1015.71
2018-02-05T11:46:56.542Z,1015.74
2018-02-05T11:47:56.471Z,1015.67
2018-02-05T11:48:56.442Z,1015.65
2018-02-05T11:49:56.411Z,1015.68
2018-02-05T11:50:56.382Z,1015.73
2018-02-05T11:51:56.351Z,1015.62
2018-02-05T11:52:56.321Z,1015.65
2018-02-05T11:53:56.293Z,1015.58
2018-02-05T11:54:56.260Z,1015.61
2018-02-05T11:55:56.232Z,1015.65
2018-02-05T11:56:56.202Z,1015.68
2018-02-05T11:57:56.173Z,1015.61
2018-02-05T11:58:56.142Z,1015.66
2018-02-05T11:59:56.112Z,1015.64
2018-02-05T12:00:56.083Z,1015.58
2018-02-05T12:01:56.053Z,1015.56
2018-02-05T12:02:56.023Z,1015.57
2018-02-05T12:03:55.993Z,1015.54
2018-02-05T12:04:55.964Z,1015.52
2018-02-05T12:05:55.932Z,1015.49
2018-02-05T12:06:55.904Z,1015.41
2018-02-05T12:07:55.873Z,1015.43